createdAt,value
2018-10-01T00:00:32.170Z,98103.19
2018-10-01T00:02:44.357Z,98104.54
2018-10-01T00:04:56.549Z,98098.67
2018-10-01T00:07:08.735Z,98094.13
2018-10-01T00:09:20.953Z,98095.91
2018-10-01T00:11:33.154Z,98094.08
2018-10-01T00:13:45.363Z,98096.74
2018-10-01T00:15:57.568Z,98090.61
2018-10-01T00:18:09.763Z,98094.42
2018-10-01T00:20:27.628Z,98088.33
2018-10-01T00:22:48.711Z,98097.98
2018-10-01T00:25:00.907Z,98095.41
2018-10-01T00:27:13.160Z,98100.95
2018-10-01T00:29:25.319Z,98101.69
2018-10-01T00:31:37.524Z,98095.07
2018-10-01T00:33:49.761Z,98085.34
2018-10-01T00:36:01.992Z,98084.80
2018-10-01T00:38:14.253Z,98087.95
2018-10-01T00:40:26.396Z,98092.23
2018-10-01T00:42:38.664Z,98091.30
2018-10-01T00:44:50.873Z,98087.05
2018-10-01T00:47:03.055Z,98079.91
2018-10-01T00:49:15.231Z,98082.86
2018-10-01T00:51:27.475Z,98082.69
2018-10-01T00:53:39.648Z,98076.02
2018-10-01T00:55:51.832Z,98079.33
2018-10-01T00:58:04.064Z,98079.44
2018-10-01T01:00:16.254Z,98088.87
2018-10-01T01:02:28.456Z,98081.45
2018-10-01T01:04:40.688Z,98072.76
2018-10-01T01:06:52.896Z,98071.28
2018-10-01T01:09:06.298Z,98075.17
2018-10-01T01:11:18.480Z,98081.19
2018-10-01T01:13:30.676Z,98078.48
2018-10-01T01:15:42.923Z,98080.72
2018-10-01T01:17:55.148Z,98073.47
2018-10-01T01:20:07.349Z,98079.49
2018-10-01T01:22:19.535Z,98072.92
2018-10-01T01:24:31.729Z,98072.45
2018-10-01T01:26:43.955Z,98071.16
2018-10-01T01:28:56.139Z,98068.45
2018-10-01T01:31:08.352Z,98071.05
2018-10-01T01:33:20.550Z,98066.33
2018-10-01T01:35:32.731Z,98060.41
2018-10-01T01:37:44.913Z,98068.86
2018-10-01T01:39:57.123Z,98067.38
2018-10-01T01:42:09.356Z,98067.16
2018-10-01T01:44:21.557Z,98063.47
2018-10-01T01:46:33.847Z,98065.30
2018-10-01T01:48:46.037Z,98069.29
2018-10-01T01:50:58.274Z,98073.25
2018-10-01T01:53:10.574Z,98066.94
2018-10-01T01:55:22.775Z,98067.88
2018-10-01T01:57:34.990Z,98070.66
2018-10-01T01:59:47.166Z,98072.80
2018-10-01T02:01:59.418Z,98064.81
2018-10-01T02:04:11.595Z,98067.52
2018-10-01T02:06:23.815Z,98068.25
2018-10-01T02:08:36.179Z,98064.30
2018-10-01T02:10:48.358Z,98063.08
2018-10-01T02:13:00.572Z,98063.91
2018-10-01T02:15:12.754Z,98066.06
2018-10-01T02:17:24.950Z,98060.23
2018-10-01T02:19:37.160Z,98064.37
2018-10-01T02:21:49.408Z,98055.28
2018-10-01T02:24:01.587Z,98053.08
2018-10-01T02:26:13.762Z,98053.98
2018-10-01T02:28:25.947Z,98056.58
2018-10-01T02:30:38.130Z,98059.10
2018-10-01T02:32:50.329Z,98048.05
2018-10-01T02:35:02.564Z,98051.02
2018-10-01T02:37:14.824Z,98052.67
2018-10-01T02:39:27.127Z,98047.65
2018-10-01T02:41:39.367Z,98048.93
2018-10-01T02:43:51.583Z,98043.83
2018-10-01T02:46:03.836Z,98046.88
2018-10-01T02:48:16.023Z,98048.80
2018-10-01T02:50:28.211Z,98056.58
2018-10-01T02:52:45.943Z,98056.38
2018-10-01T02:54:58.202Z,98049.22
2018-10-01T02:57:10.407Z,98049.39
2018-10-01T02:59:22.606Z,98055.22
2018-10-01T03:01:34.783Z,98054.09
2018-10-01T03:03:46.955Z,98055.86
2018-10-01T03:05:59.231Z,98060.47
2018-10-01T03:08:11.471Z,98065.48
2018-10-01T03:10:23.647Z,98063.47
2018-10-01T03:12:35.895Z,98063.66
2018-10-01T03:14:48.077Z,98069.57
2018-10-01T03:17:00.268Z,98064.29
2018-10-01T03:19:12.459Z,98073.28
2018-10-01T03:21:24.748Z,98067.44
2018-10-01T03:23:36.867Z,98072.84
2018-10-01T03:25:49.044Z,98065.95
2018-10-01T03:28:01.367Z,98069.57
2018-10-01T03:30:13.584Z,98073.28
2018-10-01T03:32:25.890Z,98069.02
2018-10-01T03:34:38.094Z,98065.42
2018-10-01T03:36:50.276Z,98070.43
2018-10-01T03:39:02.657Z,98069.22
2018-10-01T03:41:14.859Z,98063.30
2018-10-01T03:43:27.099Z,98061.80
2018-10-01T03:45:39.298Z,98063.02
2018-10-01T03:47:51.519Z,98063.58
2018-10-01T03:50:03.763Z,98056.63
2018-10-01T03:52:15.946Z,98054.61
2018-10-01T03:54:28.178Z,98058.20
2018-10-01T03:56:40.394Z,98053.02
2018-10-01T03:58:52.600Z,98057.22
2018-10-01T04:01:04.859Z,98052.38
2018-10-01T04:03:17.102Z,98056.27
2018-10-01T04:05:29.288Z,98059.17
2018-10-01T04:07:41.603Z,98061.30
2018-10-01T04:09:53.852Z,98065.67
2018-10-01T04:12:06.082Z,98069.29
2018-10-01T04:14:18.300Z,98071.53
2018-10-01T04:16:30.478Z,98073.37
2018-10-01T04:18:42.690Z,98080.45
2018-10-01T04:20:54.903Z,98081.36
2018-10-01T04:23:07.159Z,98082.49
2018-10-01T04:25:19.349Z,98083.24
2018-10-01T04:27:31.756Z,98086.20
2018-10-01T04:29:43.972Z,98085.66
2018-10-01T04:31:56.147Z,98085.84
2018-10-01T04:34:08.363Z,98094.36
2018-10-01T04:36:20.656Z,98102.62
2018-10-01T04:38:32.868Z,98098.83
2018-10-01T04:40:45.076Z,98101.79
2018-10-01T04:42:57.316Z,98107.34
2018-10-01T04:45:09.535Z,98109.22
2018-10-01T04:47:22.076Z,98106.62
2018-10-01T04:49:34.276Z,98106.62
2018-10-01T04:51:46.481Z,98111.16
2018-10-01T04:53:58.698Z,98110.70
2018-10-01T04:56:10.910Z,98109.50
2018-10-01T04:58:24.063Z,98116.08
2018-10-01T05:00:36.151Z,98124.23
2018-10-01T05:02:48.343Z,98126.11
2018-10-01T05:05:00.542Z,98128.52
2018-10-01T05:07:12.850Z,98129.82
2018-10-01T05:09:25.024Z,98133.72
2018-10-01T05:11:37.188Z,98140.47
2018-10-01T05:13:49.386Z,98139.64
2018-10-01T05:16:01.584Z,98149.95
2018-10-01T05:18:13.959Z,98142.81
2018-10-01T05:20:26.190Z,98150.86
2018-10-01T05:22:38.411Z,98148.27
2018-10-01T05:24:50.646Z,98160.06
2018-10-01T05:27:02.891Z,98160.25
2018-10-01T05:29:15.046Z,98159.71
2018-10-01T05:31:27.239Z,98162.20
2018-10-01T05:33:39.429Z,98163.86
2018-10-01T05:35:51.654Z,98168.70
2018-10-01T05:38:03.864Z,98168.05
2018-10-01T05:40:16.100Z,98172.13
2018-10-01T05:42:28.311Z,98175.67
2018-10-01T05:44:40.499Z,98179.56
2018-10-01T05:46:52.730Z,98184.40
2018-10-01T05:49:05.114Z,98186.60
2018-10-01T05:51:17.282Z,98189.59
2018-10-01T05:53:29.467Z,98194.79
2018-10-01T05:55:41.650Z,98190.60
2018-10-01T05:57:53.905Z,98196.63
2018-10-01T06:00:06.180Z,98193.20
2018-10-01T06:02:18.823Z,98201.83
2018-10-01T06:04:31.051Z,98202.77
2018-10-01T06:06:43.258Z,98211.67
2018-10-01T06:08:55.475Z,98209.91
2018-10-01T06:11:07.751Z,98208.32
2018-10-01T06:13:19.939Z,98210.84
2018-10-01T06:15:32.176Z,98212.39
2018-10-01T06:17:44.413Z,98220.30
2018-10-01T06:19:56.643Z,98220.02
2018-10-01T06:22:08.933Z,98227.27
2018-10-01T06:24:21.154Z,98223.36
2018-10-01T06:26:33.350Z,98229.57
2018-10-01T06:28:45.523Z,98227.63
2018-10-01T06:30:57.694Z,98234.22
2018-10-01T06:33:09.927Z,98235.59
2018-10-01T06:35:22.199Z,98237.83
2018-10-01T06:37:34.378Z,98240.72
2018-10-01T06:39:46.575Z,98249.42
2018-10-01T06:41:58.899Z,98254.25
2018-10-01T06:44:11.035Z,98264.94
2018-10-01T06:46:23.246Z,98257.69
2018-10-01T06:48:35.490Z,98262.98
2018-10-01T06:50:47.700Z,98263.53
2018-10-01T06:52:59.977Z,98262.70
2018-10-01T06:55:12.166Z,98266.78
2018-10-01T06:57:24.427Z,98267.61
2018-10-01T06:59:36.580Z,98275.80
2018-10-01T07:01:48.783Z,98277.35
2018-10-01T07:04:01.004Z,98283.02
2018-10-01T07:06:13.223Z,98281.25
2018-10-01T07:08:25.452Z,98281.44
2018-10-01T07:10:37.645Z,98289.44
2018-10-01T07:12:49.838Z,98291.00
2018-10-01T07:15:02.089Z,98294.42
2018-10-01T07:17:14.443Z,98290.73
2018-10-01T07:19:26.614Z,98302.62
2018-10-01T07:21:38.818Z,98306.16
2018-10-01T07:23:51.183Z,98303.16
2018-10-01T07:26:03.436Z,98308.09
2018-10-01T07:28:15.632Z,98311.88
2018-10-01T07:30:27.856Z,98310.75
2018-10-01T07:32:40.019Z,98311.88
2018-10-01T07:34:52.533Z,98319.86
2018-10-01T07:37:04.775Z,98318.77
2018-10-01T07:39:17.021Z,98311.89
2018-10-01T07:41:29.220Z,98319.56
2018-10-01T07:43:41.443Z,98319.30
2018-10-01T07:45:53.661Z,98319.48
2018-10-01T07:48:05.957Z,98324.84
2018-10-01T07:50:18.154Z,98333.13
2018-10-01T07:52:30.309Z,98335.07
2018-10-01T07:54:42.493Z,98338.50
2018-10-01T07:56:54.732Z,98339.16
2018-10-01T07:59:07.011Z,98341.31
2018-10-01T08:01:19.243Z,98350.05
2018-10-01T08:03:31.510Z,98346.70
2018-10-01T08:05:43.714Z,98346.98
2018-10-01T08:07:55.983Z,98356.84
2018-10-01T08:10:08.223Z,98356.45
2018-10-01T08:12:20.457Z,98360.27
2018-10-01T08:14:32.681Z,98361.83
2018-10-01T08:16:44.911Z,98369.45
2018-10-01T08:18:57.148Z,98371.58
2018-10-01T08:21:09.347Z,98376.42
2018-10-01T08:23:21.636Z,98371.20
2018-10-01T08:25:33.775Z,98368.70
2018-10-01T08:27:46.035Z,98372.49
2018-10-01T08:29:58.377Z,98380.39
2018-10-01T08:32:10.470Z,98386.33
2018-10-01T08:34:22.630Z,98394.88
2018-10-01T08:36:34.904Z,98394.28
2018-10-01T08:38:47.261Z,98400.36
2018-10-01T08:40:59.504Z,98399.89
2018-10-01T08:43:11.634Z,98401.55
2018-10-01T08:45:23.846Z,98408.89
2018-10-01T08:47:36.267Z,98404.52
2018-10-01T08:49:51.926Z,98405.75
2018-10-01T08:52:39.495Z,98408.08
2018-10-01T08:54:51.801Z,98416.53
2018-10-01T08:57:04.069Z,98416.91
2018-10-01T08:59:16.324Z,98420.09
2018-10-01T09:01:28.564Z,98420.92
2018-10-01T09:03:40.762Z,98420.27
2018-10-01T09:05:52.975Z,98423.70
2018-10-01T09:08:05.237Z,98429.27
2018-10-01T09:10:17.371Z,98434.48
2018-10-01T09:12:29.586Z,98434.30
2018-10-01T09:14:41.816Z,98432.45
2018-10-01T09:16:54.058Z,98430.09
2018-10-01T09:19:06.255Z,98433.34
2018-10-01T09:21:18.598Z,98433.73
2018-10-01T09:23:31.107Z,98433.45
2018-10-01T09:25:43.352Z,98435.22
2018-10-01T09:27:55.599Z,98433.34
2018-10-01T09:30:07.848Z,98436.81
2018-10-01T09:32:20.081Z,98441.36
2018-10-01T09:34:32.359Z,98444.32
2018-10-01T09:36:44.562Z,98449.89
2018-10-01T09:38:56.751Z,98441.62
2018-10-01T09:41:09.001Z,98445.63
2018-10-01T09:43:21.291Z,98454.44
2018-10-01T09:45:33.496Z,98450.80
2018-10-01T09:47:45.839Z,98453.05
2018-10-01T09:49:58.076Z,98453.58
2018-10-01T09:52:10.303Z,98452.44
2018-10-01T09:54:22.510Z,98457.48
2018-10-01T09:56:34.751Z,98463.71
2018-10-01T09:58:46.939Z,98464.80
2018-10-01T10:01:04.928Z,98464.91
2018-10-01T10:03:17.212Z,98461.39
2018-10-01T10:05:29.419Z,98465.30
2018-10-01T10:07:41.639Z,98474.52
2018-10-01T10:09:53.844Z,98471.27
2018-10-01T10:12:06.074Z,98475.55
2018-10-01T10:14:18.370Z,98474.27
2018-10-01T10:16:30.588Z,98478.06
2018-10-01T10:18:42.762Z,98476.03
2018-10-01T10:20:55.011Z,98488.77
2018-10-01T10:23:11.670Z,98484.49
2018-10-01T10:25:27.751Z,98487.17
2018-10-01T10:27:43.952Z,98483.08
2018-10-01T10:29:56.169Z,98484.84
2018-10-01T10:32:08.429Z,98486.05
2018-10-01T10:34:20.632Z,98474.50
2018-10-01T10:36:32.854Z,98479.22
2018-10-01T10:38:45.102Z,98487.55
2018-10-01T10:40:57.303Z,98491.36
2018-10-01T10:43:09.578Z,98487.97
2018-10-01T10:45:21.832Z,98490.30
2018-10-01T10:47:34.058Z,98488.33
2018-10-01T10:49:46.310Z,98493.74
2018-10-01T10:51:58.535Z,98496.98
2018-10-01T10:54:10.767Z,98487.91
2018-10-01T10:56:22.923Z,98495.85
2018-10-01T10:58:35.152Z,98502.89
2018-10-01T11:00:47.427Z,98503.64
2018-10-01T11:02:59.616Z,98503.28
2018-10-01T11:05:11.827Z,98508.97
2018-10-01T11:07:24.072Z,98511.38
2018-10-01T11:09:36.316Z,98503.48
2018-10-01T11:11:48.504Z,98508.44
2018-10-01T11:14:00.740Z,98507.33
2018-10-01T11:16:12.914Z,98502.07
2018-10-01T11:18:25.148Z,98499.66
2018-10-01T11:20:37.409Z,98503.77
2018-10-01T11:22:49.641Z,98499.19
2018-10-01T11:25:01.884Z,98497.41
2018-10-01T11:27:14.213Z,98498.72
2018-10-01T11:29:26.349Z,98501.28
2018-10-01T11:31:38.632Z,98494.01
2018-10-01T11:33:50.811Z,98498.08
2018-10-01T11:36:03.061Z,98502.98
2018-10-01T11:38:15.353Z,98507.72
2018-10-01T11:40:27.536Z,98506.27
2018-10-01T11:42:39.775Z,98515.91
2018-10-01T11:44:52.024Z,98506.02
2018-10-01T11:47:04.281Z,98511.95
2018-10-01T11:49:16.469Z,98507.13
2018-10-01T11:51:28.774Z,98515.11
2018-10-01T11:53:40.986Z,98511.91
2018-10-01T11:55:53.299Z,98513.45
2018-10-01T11:58:05.558Z,98508.11
2018-10-01T12:00:18.331Z,98518.50
2018-10-01T12:02:30.637Z,98519.73
2018-10-01T12:04:42.892Z,98516.89
2018-10-01T12:06:55.147Z,98520.41
2018-10-01T12:09:08.868Z,98520.48
2018-10-01T12:11:21.052Z,98521.79
2018-10-01T12:13:33.302Z,98519.92
2018-10-01T12:15:45.582Z,98518.08
2018-10-01T12:17:57.782Z,98515.51
2018-10-01T12:20:09.871Z,98523.37
2018-10-01T12:22:22.117Z,98518.31
2018-10-01T12:24:34.327Z,98525.51
2018-10-01T12:26:46.592Z,98514.64
2018-10-01T12:28:58.922Z,98521.72
2018-10-01T12:31:11.117Z,98520.33
2018-10-01T12:33:23.322Z,98521.24
2018-10-01T12:35:35.565Z,98525.16
2018-10-01T12:37:48.680Z,98523.09
2018-10-01T12:40:00.923Z,98520.65
2018-10-01T12:42:13.259Z,98526.94
2018-10-01T12:44:25.492Z,98521.36
2018-10-01T12:46:37.747Z,98518.23
2018-10-01T12:48:49.950Z,98517.98
2018-10-01T12:51:02.246Z,98518.41
2018-10-01T12:53:14.718Z,98517.52
2018-10-01T12:55:26.938Z,98522.33
2018-10-01T12:57:39.230Z,98520.44
2018-10-01T12:59:51.440Z,98519.04
2018-10-01T13:02:03.738Z,98521.89
2018-10-01T13:04:15.960Z,98523.82
2018-10-01T13:06:28.286Z,98526.28
2018-10-01T13:08:40.428Z,98521.17
2018-10-01T13:10:52.670Z,98525.45
2018-10-01T13:13:04.914Z,98518.59
2018-10-01T13:15:17.211Z,98520.02
2018-10-01T13:17:29.456Z,98517.09
2018-10-01T13:19:41.788Z,98507.55
2018-10-01T13:21:54.027Z,98512.53
2018-10-01T13:24:06.472Z,98510.61
2018-10-01T13:26:18.622Z,98520.02
2018-10-01T13:28:30.880Z,98516.22
2018-10-01T13:30:43.323Z,98509.45
2018-10-01T13:32:55.548Z,98509.81
2018-10-01T13:35:07.839Z,98511.72
2018-10-01T13:37:20.088Z,98510.17
2018-10-01T13:39:32.385Z,98507.91
2018-10-01T13:41:44.683Z,98508.88
2018-10-01T13:43:56.911Z,98507.17
2018-10-01T13:46:09.217Z,98504.85
2018-10-01T13:48:21.516Z,98505.54
2018-10-01T13:50:33.699Z,98509.73
2018-10-01T13:52:45.995Z,98516.31
2018-10-01T13:54:58.240Z,98523.00
2018-10-01T13:57:10.533Z,98524.38
2018-10-01T13:59:22.773Z,98514.84
2018-10-01T14:01:35.052Z,98520.59
2018-10-01T14:03:47.280Z,98518.73
2018-10-01T14:05:59.531Z,98510.83
2018-10-01T14:08:11.780Z,98511.05
2018-10-01T14:10:24.050Z,98510.64
2018-10-01T14:12:36.297Z,98509.31
2018-10-01T14:14:48.571Z,98509.74
2018-10-01T14:17:00.780Z,98505.23
2018-10-01T14:19:13.074Z,98502.66
2018-10-01T14:21:25.286Z,98500.02
2018-10-01T14:23:37.568Z,98503.72
2018-10-01T14:25:49.808Z,98503.01
2018-10-01T14:28:02.055Z,98505.70
2018-10-01T14:30:14.351Z,98504.27
2018-10-01T14:32:26.579Z,98504.03
2018-10-01T14:34:38.867Z,98509.09
2018-10-01T14:36:51.198Z,98507.03
2018-10-01T14:39:04.735Z,98511.58
2018-10-01T14:41:16.956Z,98510.09
2018-10-01T14:43:29.221Z,98512.72
2018-10-01T14:45:41.511Z,98506.13
2018-10-01T14:47:53.784Z,98506.70
2018-10-01T14:50:06.112Z,98511.95
2018-10-01T14:52:18.388Z,98506.84
2018-10-01T14:54:30.697Z,98506.43
2018-10-01T14:56:42.948Z,98514.95
2018-10-01T14:58:55.154Z,98520.53
2018-10-01T15:01:07.456Z,98522.52
2018-10-01T15:03:19.748Z,98518.98
2018-10-01T15:05:32.036Z,98516.63
2018-10-01T15:07:44.244Z,98521.38
2018-10-01T15:09:56.669Z,98527.48
2018-10-01T15:12:08.989Z,98524.24
2018-10-01T15:14:21.264Z,98528.55
2018-10-01T15:16:33.764Z,98530.22
2018-10-01T15:18:46.034Z,98525.67
2018-10-01T15:20:58.290Z,98530.25
2018-10-01T15:23:10.566Z,98535.70
2018-10-01T15:25:22.863Z,98541.23
2018-10-01T15:27:35.175Z,98544.75
2018-10-01T15:29:47.440Z,98547.11
2018-10-01T15:31:59.767Z,98545.58
2018-10-01T15:34:12.067Z,98548.41
2018-10-01T15:36:24.397Z,98551.86
2018-10-01T15:38:36.724Z,98548.88
2018-10-01T15:40:49.038Z,98557.95
2018-10-01T15:43:01.334Z,98551.69
2018-10-01T15:45:13.603Z,98552.34
2018-10-01T15:47:25.911Z,98559.41
2018-10-01T15:49:38.172Z,98560.66
2018-10-01T15:51:50.558Z,98560.86
2018-10-01T15:54:02.835Z,98559.92
2018-10-01T15:56:15.137Z,98561.59
2018-10-01T15:58:27.402Z,98570.98
2018-10-01T16:00:39.724Z,98566.63
2018-10-01T16:02:52.000Z,98565.76
2018-10-01T16:05:04.494Z,98566.27
2018-10-01T16:07:16.763Z,98569.66
2018-10-01T16:09:29.028Z,98576.66
2018-10-01T16:11:41.304Z,98576.95
2018-10-01T16:13:53.595Z,98580.15
2018-10-01T16:16:06.269Z,98581.86
2018-10-01T16:18:18.690Z,98581.30
2018-10-01T16:22:56.300Z,98587.58
2018-10-01T16:25:08.648Z,98598.91
2018-10-01T16:27:20.906Z,98594.33
2018-10-01T16:29:33.194Z,98598.06
2018-10-01T16:31:45.507Z,98594.75
2018-10-01T16:33:57.796Z,98593.34
2018-10-01T16:36:10.073Z,98591.73
2018-10-01T16:38:22.329Z,98592.84
2018-10-01T16:40:34.651Z,98596.40
2018-10-01T16:42:46.931Z,98599.30
2018-10-01T16:44:59.254Z,98597.77
2018-10-01T16:47:11.539Z,98608.02
2018-10-01T16:49:23.839Z,98606.84
2018-10-01T16:51:36.149Z,98607.97
2018-10-01T16:53:48.395Z,98610.48
2018-10-01T16:56:00.662Z,98606.87
2018-10-01T16:58:12.957Z,98617.30
2018-10-01T17:00:25.149Z,98618.78
2018-10-01T17:02:37.372Z,98636.08
2018-10-01T17:04:49.685Z,98632.94
2018-10-01T17:07:01.955Z,98637.67
2018-10-01T17:09:14.170Z,98635.72
2018-10-01T17:11:26.743Z,98632.36
2018-10-01T17:13:39.137Z,98637.02
2018-10-01T17:15:51.819Z,98639.33
2018-10-01T17:18:04.091Z,98641.64
2018-10-01T17:20:16.348Z,98648.08
2018-10-01T17:22:28.699Z,98646.77
2018-10-01T17:24:40.974Z,98658.01
2018-10-01T17:26:53.360Z,98663.58
2018-10-01T17:29:05.696Z,98679.38
2018-10-01T17:31:17.998Z,98693.62
2018-10-01T17:33:30.254Z,98709.52
2018-10-01T17:35:42.454Z,98713.01
2018-10-01T17:37:54.739Z,98716.52
2018-10-01T17:40:07.064Z,98721.41
2018-10-01T17:42:19.419Z,98717.73
2018-10-01T17:44:31.631Z,98716.67
2018-10-01T17:46:43.833Z,98723.13
2018-10-01T17:48:56.124Z,98731.05
2018-10-01T17:51:08.361Z,98739.21
2018-10-01T17:53:20.739Z,98745.70
2018-10-01T17:55:32.956Z,98746.56
2018-10-01T17:57:45.260Z,98751.23
2018-10-01T17:59:57.649Z,98757.93
2018-10-01T18:02:09.844Z,98757.16
2018-10-01T18:04:22.127Z,98766.93
2018-10-01T18:06:34.381Z,98770.98
2018-10-01T18:08:46.704Z,98765.48
2018-10-01T18:10:59.607Z,98769.38
2018-10-01T18:13:11.911Z,98771.30
2018-10-01T18:15:24.163Z,98775.97
2018-10-01T18:17:36.382Z,98785.78
2018-10-01T18:19:48.681Z,98784.39
2018-10-01T18:22:00.982Z,98785.53
2018-10-01T18:24:13.256Z,98788.44
2018-10-01T18:26:25.637Z,98789.50
2018-10-01T18:28:37.939Z,98796.02
2018-10-01T18:30:56.618Z,98790.14
2018-10-01T18:33:08.879Z,98792.59
2018-10-01T18:35:21.127Z,98793.05
2018-10-01T18:37:33.435Z,98800.94
2018-10-01T18:39:45.588Z,98799.55
2018-10-01T18:41:57.955Z,98805.58
2018-10-01T18:44:10.253Z,98808.79
2018-10-01T18:46:22.536Z,98811.85
2018-10-01T18:48:34.808Z,98815.77
2018-10-01T18:50:47.028Z,98817.31
2018-10-01T18:52:59.367Z,98816.70
2018-10-01T18:55:11.669Z,98816.14
2018-10-01T18:57:23.974Z,98817.29
2018-10-01T18:59:36.251Z,98812.95
2018-10-01T19:01:48.464Z,98824.79
2018-10-01T19:04:00.873Z,98827.53
2018-10-01T19:06:13.163Z,98827.22
2018-10-01T19:08:25.447Z,98832.41
2018-10-01T19:10:37.771Z,98827.08
2018-10-01T19:12:50.053Z,98830.95
2018-10-01T19:15:02.434Z,98843.27
2018-10-01T19:17:14.666Z,98841.59
2018-10-01T19:19:26.991Z,98845.03
2018-10-01T19:21:39.327Z,98852.27
2018-10-01T19:23:51.659Z,98852.83
2018-10-01T19:26:04.179Z,98857.84
2018-10-01T19:28:16.289Z,98861.83
2018-10-01T19:30:28.895Z,98868.69
2018-10-01T19:32:41.131Z,98871.15
2018-10-01T19:34:53.430Z,98872.91
2018-10-01T19:37:05.724Z,98871.81
2018-10-01T19:39:18.064Z,98879.08
2018-10-01T19:41:30.280Z,98873.95
2018-10-01T19:43:42.543Z,98879.83
2018-10-01T19:45:54.852Z,98882.89
2018-10-01T19:48:07.144Z,98879.13
2018-10-01T19:50:19.383Z,98888.73
2018-10-01T19:52:31.666Z,98884.47
2018-10-01T19:54:43.898Z,98892.54
2018-10-01T19:56:56.202Z,98896.14
2018-10-01T19:59:08.428Z,98887.89
2018-10-01T20:01:20.715Z,98894.01
2018-10-01T20:03:32.980Z,98901.63
2018-10-01T20:05:45.223Z,98895.55
2018-10-01T20:07:57.487Z,98897.91
2018-10-01T20:10:09.876Z,98897.58
2018-10-01T20:12:22.109Z,98905.74
2018-10-01T20:14:34.368Z,98908.48
2018-10-01T20:16:46.677Z,98903.38
2018-10-01T20:18:58.871Z,98909.03
2018-10-01T20:21:11.128Z,98911.12
2018-10-01T20:23:23.455Z,98912.47
2018-10-01T20:25:35.848Z,98914.45
2018-10-01T20:27:48.367Z,98912.93
2018-10-01T20:30:00.470Z,98914.77
2018-10-01T20:32:12.679Z,98910.09
2018-10-01T20:34:24.950Z,98915.66
2018-10-01T20:36:37.228Z,98919.18
2018-10-01T20:38:49.526Z,98918.72
2018-10-01T20:41:01.887Z,98920.80
2018-10-01T20:43:14.171Z,98922.85
2018-10-01T20:45:26.394Z,98928.64
2018-10-01T20:47:38.724Z,98931.70
2018-10-01T20:49:50.957Z,98933.00
2018-10-01T20:52:03.241Z,98927.56
2018-10-01T20:54:15.474Z,98928.08
2018-10-01T20:56:27.758Z,98927.84
2018-10-01T20:58:40.025Z,98925.70
2018-10-01T21:00:52.274Z,98930.44
2018-10-01T21:03:04.672Z,98930.11
2018-10-01T21:05:16.942Z,98928.44
2018-10-01T21:07:29.163Z,98929.82
2018-10-01T21:09:41.377Z,98933.11
2018-10-01T21:11:53.609Z,98934.68
2018-10-01T21:14:05.930Z,98935.98
2018-10-01T21:16:18.147Z,98940.84
2018-10-01T21:18:30.352Z,98943.27
2018-10-01T21:20:42.614Z,98944.19
2018-10-01T21:22:54.842Z,98941.27
2018-10-01T21:25:07.203Z,98942.19
2018-10-01T21:27:19.450Z,98943.03
2018-10-01T21:29:31.674Z,98947.67
2018-10-01T21:31:43.922Z,98952.86
2018-10-01T21:33:56.201Z,98956.00
2018-10-01T21:36:08.478Z,98960.19
2018-10-01T21:38:20.688Z,98952.81
2018-10-01T21:40:33.003Z,98957.92
2018-10-01T21:42:45.627Z,98957.08
2018-10-01T21:44:58.820Z,98958.46
2018-10-01T21:47:11.086Z,98964.97
2018-10-01T21:49:23.343Z,98966.86
2018-10-01T21:51:35.566Z,98968.67
2018-10-01T21:53:47.891Z,98967.00
2018-10-01T21:56:00.115Z,98968.16
2018-10-01T21:58:12.351Z,98968.08
2018-10-01T22:00:24.740Z,98972.97
2018-10-01T22:02:37.011Z,98969.92
2018-10-01T22:04:49.312Z,98970.63
2018-10-01T22:07:01.533Z,98972.19
2018-10-01T22:09:13.782Z,98972.78
2018-10-01T22:11:26.020Z,98974.34
2018-10-01T22:13:38.257Z,98978.42
2018-10-01T22:15:50.456Z,98974.80
2018-10-01T22:18:02.671Z,98979.47
2018-10-01T22:20:14.951Z,98972.33
2018-10-01T22:22:27.180Z,98979.36
2018-10-01T22:24:39.426Z,98978.27
2018-10-01T22:26:51.654Z,98975.13
2018-10-01T22:29:03.948Z,98980.58
2018-10-01T22:31:16.178Z,98982.28
2018-10-01T22:33:28.457Z,98974.17
2018-10-01T22:35:40.763Z,98974.55
2018-10-01T22:37:52.989Z,98969.95
2018-10-01T22:40:05.291Z,98973.13
2018-10-01T22:42:17.527Z,98970.49
2018-10-01T22:44:29.744Z,98970.55
2018-10-01T22:46:41.980Z,98969.12
2018-10-01T22:48:54.188Z,98964.39
2018-10-01T22:51:06.454Z,98970.16
2018-10-01T22:53:18.730Z,98971.45
2018-10-01T22:55:30.971Z,98972.67
2018-10-01T22:57:43.201Z,98973.67
2018-10-01T22:59:55.400Z,98978.52
2018-10-01T23:02:07.628Z,98976.90
2018-10-01T23:04:19.815Z,98976.72
2018-10-01T23:06:32.026Z,98977.81
2018-10-01T23:08:44.238Z,98981.45
2018-10-01T23:10:56.591Z,98981.32
2018-10-01T23:13:08.816Z,98976.47
2018-10-01T23:15:21.122Z,98979.31
2018-10-01T23:17:33.342Z,98982.28
2018-10-01T23:19:45.581Z,98985.33
2018-10-01T23:21:57.835Z,98984.23
2018-10-01T23:24:10.056Z,98981.77
2018-10-01T23:26:22.283Z,98991.34
2018-10-01T23:28:34.490Z,98987.58
2018-10-01T23:30:46.716Z,98991.16
2018-10-01T23:32:58.978Z,98997.69
2018-10-01T23:35:11.192Z,98992.63
2018-10-01T23:37:23.431Z,98994.58
2018-10-01T23:39:35.695Z,98995.80
2018-10-01T23:41:47.960Z,98994.23
2018-10-01T23:44:00.155Z,98992.69
2018-10-01T23:46:12.335Z,98994.44
2018-10-01T23:48:24.542Z,98996.83
2018-10-01T23:50:36.786Z,98993.86
2018-10-01T23:52:49.006Z,98994.05
2018-10-01T23:55:01.207Z,98990.69
2018-10-01T23:57:13.423Z,98990.73
2018-10-01T23:59:25.662Z,98989.84
